Time;durP1;ratioP1;P1;durP2;ratioP2;P2;SDS_P1;SDS_P2;PMS_P1;PMS_P2;Temp;Humidity;BMP_temperature;BMP_pressure;BME280_temperature;BME280_humidity;BME280_pressure;Samples;Min_cycle;Max_cycle;Signal;HPM_P1;HPM_P2
2022/08/06 00:02:24;;;;;;;5.65;2.40;;;;;;;13.53;69.06;102369.97;4990873;28;20094;-76
2022/08/06 00:04:50;;;;;;;8.60;2.35;;;;;;;13.52;69.24;102378.94;4989144;28;20039;-77
2022/08/06 00:07:17;;;;;;;6.20;2.05;;;;;;;13.44;70.29;102373.88;4992382;28;20033;-77
2022/08/06 00:09:42;;;;;;;5.18;1.92;;;;;;;13.42;70.52;102370.41;4992224;28;20055;-77
2022/08/06 00:12:08;;;;;;;6.97;2.35;;;;;;;13.34;70.28;102374.31;4990689;28;20022;-77
2022/08/06 00:14:33;;;;;;;4.88;2.20;;;;;;;13.29;71.35;102371.78;4991126;28;20124;-77
2022/08/06 00:16:59;;;;;;;3.88;1.83;;;;;;;13.23;71.42;102369.34;4998118;28;20095;-78
2022/08/06 00:19:25;;;;;;;7.03;2.38;;;;;;;13.20;71.67;102375.63;4987794;28;20042;-77
2022/08/06 00:21:50;;;;;;;6.68;2.28;;;;;;;13.18;71.54;102376.66;4971816;28;20094;-77
2022/08/06 00:24:16;;;;;;;6.00;2.08;;;;;;;13.12;71.75;102380.41;4975490;28;20496;-77
2022/08/06 00:26:41;;;;;;;6.18;2.10;;;;;;;13.16;71.47;102387.38;4985590;28;20109;-77
2022/08/06 00:29:07;;;;;;;9.02;2.50;;;;;;;13.14;71.59;102388.38;4991997;28;20171;-78
2022/08/06 00:31:32;;;;;;;7.72;2.33;;;;;;;13.09;72.07;102385.03;5001422;28;20117;-77
2022/08/06 00:34:00;;;;;;;5.82;2.00;;;;;;;13.06;71.68;102393.16;4987405;28;20502;-77
2022/08/06 00:36:26;;;;;;;7.53;2.10;;;;;;;13.00;71.45;102390.69;4995725;28;20102;-77
2022/08/06 00:38:52;;;;;;;7.50;2.30;;;;;;;13.00;72.75;102396.03;4991511;28;20035;-77
2022/08/06 00:41:18;;;;;;;6.72;2.60;;;;;;;12.95;72.51;102402.41;4990968;28;20034;-78
2022/08/06 00:43:43;;;;;;;7.45;2.83;;;;;;;12.99;72.98;102396.97;4988352;28;20029;-77
2022/08/06 00:46:09;;;;;;;3.95;2.15;;;;;;;12.96;73.04;102396.16;4988567;28;20073;-77
2022/08/06 00:48:34;;;;;;;6.15;2.47;;;;;;;12.99;72.90;102399.63;4988585;28;20053;-78
2022/08/06 00:51:00;;;;;;;10.82;2.40;;;;;;;12.92;73.31;102410.56;4988983;28;20498;-78
2022/08/06 00:53:25;;;;;;;4.90;2.30;;;;;;;12.92;73.14;102409.69;4984204;28;20089;-78
2022/08/06 00:55:50;;;;;;;5.88;2.30;;;;;;;12.86;73.46;102408.09;4987513;28;20060;-77
2022/08/06 00:58:15;;;;;;;7.32;2.60;;;;;;;12.78;73.62;102401.25;4973923;28;20018;-78
2022/08/06 01:00:41;;;;;;;8.10;2.20;;;;;;;12.76;73.54;102411.16;4987039;28;20049;-76
2022/08/06 01:03:06;;;;;;;8.05;2.20;;;;;;;12.68;74.08;102411.41;4983613;28;20104;-77
2022/08/06 01:05:32;;;;;;;7.30;2.67;;;;;;;12.65;73.83;102423.06;4982463;28;20380;-77
2022/08/06 01:07:57;;;;;;;6.43;2.47;;;;;;;12.62;74.34;102424.97;4987429;28;20023;-78
2022/08/06 01:10:22;;;;;;;7.90;2.45;;;;;;;12.56;74.24;102427.84;4975345;28;20026;-77
2022/08/06 01:12:48;;;;;;;7.05;2.42;;;;;;;12.53;74.70;102426.16;4983093;28;20126;-77
2022/08/06 01:15:13;;;;;;;8.05;2.50;;;;;;;12.48;75.08;102430.78;4983184;28;20050;-77
2022/08/06 01:17:58;;;;;;;4.90;2.25;;;;;;;12.53;74.13;102436.84;4979286;28;20361;-77
2022/08/06 01:20:44;;;;;;;5.63;2.58;;;;;;;12.51;74.30;102438.69;4980976;28;20038;-76
2022/08/06 01:23:12;;;;;;;10.15;2.60;;;;;;;12.50;75.34;102441.41;4977057;28;20038;-77
2022/08/06 01:26:01;;;;;;;8.55;2.67;;;;;;;12.47;74.69;102439.72;4986141;28;20591;-77
2022/08/06 01:28:33;;;;;;;6.78;2.50;;;;;;;12.42;75.17;102447.03;4986803;28;20030;-77
2022/08/06 01:31:08;;;;;;;6.35;2.65;;;;;;;12.41;75.36;102440.78;4983573;28;20384;-77
2022/08/06 01:33:40;;;;;;;9.60;3.20;;;;;;;12.37;75.68;102436.50;4982422;28;20728;-76
2022/08/06 01:36:11;;;;;;;5.88;2.55;;;;;;;12.34;76.63;102438.38;4986864;28;20034;-77
2022/08/06 01:38:40;;;;;;;7.72;2.50;;;;;;;12.32;76.67;102435.75;4991444;28;20484;-77
2022/08/06 01:41:09;;;;;;;7.45;2.75;;;;;;;12.28;77.24;102436.78;4972361;28;20034;-77
2022/08/06 01:43:36;;;;;;;5.78;2.47;;;;;;;12.23;76.62;102436.06;4982875;28;20027;-76
2022/08/06 01:46:03;;;;;;;7.00;2.70;;;;;;;12.26;76.48;102449.31;4985576;28;20046;-77
2022/08/06 01:48:32;;;;;;;6.68;2.67;;;;;;;12.20;77.40;102444.16;4987954;28;20619;-77
2022/08/06 01:51:01;;;;;;;5.70;2.47;;;;;;;12.18;77.21;102448.69;4973462;28;20030;-77
2022/08/06 01:53:34;;;;;;;6.55;2.88;;;;;;;12.13;77.15;102445.28;4976175;28;20031;-76
2022/08/06 01:56:01;;;;;;;5.13;2.38;;;;;;;12.10;78.01;102446.25;4976649;28;20041;-77
2022/08/06 01:58:31;;;;;;;10.18;2.90;;;;;;;12.11;78.23;102447.13;4990715;28;20085;-76
2022/08/06 02:01:02;;;;;;;6.93;2.55;;;;;;;12.10;78.15;102451.59;4977747;28;20129;-76
2022/08/06 02:03:32;;;;;;;5.95;2.72;;;;;;;12.07;77.76;102445.47;4987719;28;20050;-77
2022/08/06 02:05:59;;;;;;;5.47;2.13;;;;;;;12.02;77.76;102442.09;4994327;28;20026;-77
2022/08/06 02:08:27;;;;;;;6.30;2.35;;;;;;;11.92;78.30;102445.03;5006387;28;20034;-77
2022/08/06 02:10:55;;;;;;;6.65;2.60;;;;;;;11.86;78.80;102441.69;4989592;28;20031;-77
2022/08/06 02:13:23;;;;;;;7.22;2.90;;;;;;;11.76;78.94;102441.06;4986157;28;20575;-77
2022/08/06 02:15:49;;;;;;;5.05;2.45;;;;;;;11.86;78.81;102447.88;4988924;28;20026;-77
2022/08/06 02:18:17;;;;;;;7.38;2.67;;;;;;;11.85;79.03;102456.81;4984684;28;20120;-77
2022/08/06 02:20:47;;;;;;;4.63;2.60;;;;;;;11.78;79.04;102444.53;4983327;28;20038;-77
2022/08/06 02:23:17;;;;;;;5.10;2.45;;;;;;;11.76;79.36;102454.41;4983987;28;20066;-77
2022/08/06 02:25:45;;;;;;;5.85;2.80;;;;;;;11.78;79.24;102457.00;4984134;28;20085;-77
2022/08/06 02:28:14;;;;;;;6.53;2.90;;;;;;;11.77;79.23;102453.47;4982426;28;20033;-77
2022/08/06 02:30:43;;;;;;;6.20;2.65;;;;;;;11.75;79.56;102455.34;4980225;28;20318;-77
2022/08/06 02:33:09;;;;;;;8.38;3.17;;;;;;;11.69;79.75;102444.84;4977523;28;20476;-77
2022/08/06 02:35:44;;;;;;;5.75;2.35;;;;;;;11.67;80.25;102450.22;4977075;28;20030;-77
2022/08/06 02:38:32;;;;;;;4.75;2.28;;;;;;;11.64;80.16;102455.63;4979370;28;20026;-76
2022/08/06 02:41:05;;;;;;;5.30;2.50;;;;;;;11.67;80.32;102452.88;4953543;28;20058;-77
2022/08/06 02:43:40;;;;;;;7.50;3.00;;;;;;;11.66;79.58;102458.25;4979276;28;20395;-77
2022/08/06 02:46:19;;;;;;;7.28;2.70;;;;;;;11.66;79.50;102456.47;4977087;28;20102;-77
2022/08/06 02:48:50;;;;;;;6.18;2.70;;;;;;;11.64;80.05;102449.44;4980649;28;20435;-76
2022/08/06 02:51:21;;;;;;;7.38;2.60;;;;;;;11.61;79.63;102452.19;4973999;28;20118;-77
2022/08/06 02:53:57;;;;;;;8.43;3.17;;;;;;;11.62;80.04;102459.25;4978794;28;20045;-77
2022/08/06 02:56:25;;;;;;;7.55;2.75;;;;;;;11.52;80.02;102448.00;4994063;28;20026;-77
2022/08/06 02:58:53;;;;;;;6.13;2.67;;;;;;;11.54;80.71;102456.84;4983498;28;20420;-76
2022/08/06 03:01:22;;;;;;;7.35;2.72;;;;;;;11.51;81.07;102453.38;4979252;28;20667;-77
2022/08/06 03:03:50;;;;;;;7.72;2.70;;;;;;;11.53;80.67;102454.19;4987809;28;20058;-77
2022/08/06 03:06:18;;;;;;;8.68;2.90;;;;;;;11.50;80.89;102464.97;4984905;28;20159;-77
2022/08/06 03:08:45;;;;;;;4.35;2.65;;;;;;;11.48;80.82;102457.88;4970814;28;20451;-78
2022/08/06 03:11:11;;;;;;;5.90;3.20;;;;;;;11.46;81.14;102461.53;4981591;28;20039;-77
2022/08/06 03:13:38;;;;;;;7.60;3.10;;;;;;;11.45;81.43;102468.66;4969676;28;20093;-77
2022/08/06 03:16:06;;;;;;;8.40;2.90;;;;;;;11.43;81.44;102459.81;4997971;28;20060;-77
2022/08/06 03:18:33;;;;;;;9.77;2.78;;;;;;;11.45;81.24;102462.41;5008895;28;20384;-77
2022/08/06 03:21:01;;;;;;;5.28;2.97;;;;;;;11.43;81.74;102461.59;5005703;28;20042;-77
2022/08/06 03:23:29;;;;;;;5.40;2.85;;;;;;;11.40;81.52;102459.88;5004052;28;20082;-77
2022/08/06 03:25:56;;;;;;;5.15;2.70;;;;;;;11.38;81.51;102461.72;4992469;28;20026;-77
2022/08/06 03:28:23;;;;;;;5.18;3.00;;;;;;;11.35;81.95;102455.59;4986176;28;20027;-77
2022/08/06 03:30:50;;;;;;;7.35;2.83;;;;;;;11.33;81.37;102457.44;4985425;28;20041;-77
2022/08/06 03:33:16;;;;;;;5.15;2.55;;;;;;;11.28;81.46;102465.56;4981390;28;20026;-76
2022/08/06 03:35:43;;;;;;;9.05;3.20;;;;;;;11.25;81.49;102457.69;4977003;28;20046;-78
2022/08/06 03:38:10;;;;;;;6.88;3.00;;;;;;;11.24;81.75;102469.22;5001601;28;20033;-77
2022/08/06 03:40:38;;;;;;;6.40;2.67;;;;;;;11.23;81.70;102464.81;4970348;28;20034;-78
2022/08/06 03:43:04;;;;;;;6.90;2.95;;;;;;;11.23;82.06;102472.81;4972455;28;20041;-77
2022/08/06 03:45:31;;;;;;;4.07;2.83;;;;;;;11.20;81.81;102475.56;4980459;28;20109;-77
2022/08/06 03:48:00;;;;;;;5.85;2.80;;;;;;;11.20;82.32;102479.13;4984507;28;20041;-78
2022/08/06 03:50:34;;;;;;;7.43;3.22;;;;;;;11.21;82.29;102488.00;4979704;28;20037;-77
2022/08/06 03:53:04;;;;;;;7.45;2.95;;;;;;;11.22;82.29;102481.75;4980446;28;21562;-77
2022/08/06 03:55:33;;;;;;;7.40;3.22;;;;;;;11.20;82.44;102494.22;4983387;28;20030;-77
2022/08/06 03:58:03;;;;;;;5.32;3.25;;;;;;;11.17;82.88;102489.88;4973886;28;20037;-75
2022/08/06 04:00:34;;;;;;;6.93;2.80;;;;;;;11.17;82.51;102494.31;4976430;28;20435;-78
2022/08/06 04:03:04;;;;;;;6.55;3.15;;;;;;;11.13;82.99;102497.97;4980421;28;20049;-77
2022/08/06 04:05:31;;;;;;;6.03;3.10;;;;;;;11.17;82.75;102495.19;4984664;28;20094;-76
2022/08/06 04:08:05;;;;;;;10.07;3.33;;;;;;;11.16;82.40;102504.09;4980159;28;20317;-77
2022/08/06 04:10:36;;;;;;;6.65;3.00;;;;;;;11.12;82.83;102496.22;4975236;28;20054;-76
2022/08/06 04:13:07;;;;;;;9.93;3.20;;;;;;;11.09;82.40;102493.66;4998621;28;20040;-76
2022/08/06 04:15:35;;;;;;;6.70;3.20;;;;;;;11.09;83.20;102499.84;4986969;28;20383;-76
2022/08/06 04:18:01;;;;;;;6.95;3.13;;;;;;;11.13;83.30;102500.66;4988917;28;20097;-76
2022/08/06 04:20:28;;;;;;;5.90;2.90;;;;;;;11.13;83.46;102506.84;4982377;28;20484;-77
2022/08/06 04:22:54;;;;;;;8.70;3.10;;;;;;;11.12;83.73;102513.09;4977435;28;20041;-77
2022/08/06 04:25:21;;;;;;;7.95;3.10;;;;;;;11.09;83.99;102514.97;4981733;28;20018;-77
2022/08/06 04:27:48;;;;;;;7.32;3.00;;;;;;;11.07;83.46;102511.44;4977246;28;20023;-77
2022/08/06 04:30:14;;;;;;;8.27;3.45;;;;;;;11.04;83.75;102504.44;4975906;28;20041;-77
2022/08/06 04:32:41;;;;;;;5.05;2.67;;;;;;;11.07;84.02;102512.31;4994773;28;20432;-77
2022/08/06 04:35:10;;;;;;;5.50;2.83;;;;;;;11.11;83.88;102516.66;4987372;28;20440;-77
2022/08/06 04:37:36;;;;;;;6.10;2.92;;;;;;;11.12;83.65;102504.19;4985379;28;20472;-77
2022/08/06 04:40:02;;;;;;;7.65;2.90;;;;;;;11.19;83.50;102513.78;4984850;28;20033;-76
2022/08/06 04:42:28;;;;;;;5.40;2.80;;;;;;;11.21;83.33;102515.50;4987440;28;20128;-77
2022/08/06 04:44:54;;;;;;;8.27;3.30;;;;;;;11.23;83.18;102515.47;4981758;28;20030;-77
2022/08/06 04:47:20;;;;;;;6.47;3.33;;;;;;;11.28;83.45;102518.88;4987412;28;20026;-77
2022/08/06 04:49:45;;;;;;;8.05;3.33;;;;;;;11.28;83.52;102510.00;4984543;28;20027;-77
2022/08/06 04:52:24;;;;;;;4.95;3.05;;;;;;;11.32;83.49;102523.19;4988323;28;20041;-77
2022/08/06 04:54:50;;;;;;;5.68;2.88;;;;;;;11.35;83.68;102525.78;4985380;28;20405;-77
2022/08/06 04:57:15;;;;;;;9.40;3.20;;;;;;;11.36;83.63;102530.19;4992900;28;20031;-77
2022/08/06 04:59:40;;;;;;;4.88;3.13;;;;;;;11.36;84.08;102530.19;4985645;28;20073;-77
2022/08/06 05:02:06;;;;;;;6.53;2.92;;;;;;;11.41;83.49;102533.66;4984119;28;20088;-76
2022/08/06 05:04:33;;;;;;;6.32;3.03;;;;;;;11.43;83.85;102534.47;4988883;28;20031;-77
2022/08/06 05:07:20;;;;;;;7.28;3.35;;;;;;;11.51;83.25;102536.03;4988796;28;20065;-77
2022/08/06 05:09:46;;;;;;;6.70;3.10;;;;;;;11.54;83.81;102538.63;4980825;28;20030;-77
2022/08/06 05:12:19;;;;;;;8.50;3.65;;;;;;;11.57;83.37;102536.72;4984897;28;20026;-77
2022/08/06 05:15:09;;;;;;;8.10;3.40;;;;;;;11.65;82.77;102539.19;4985169;28;20034;-78
2022/08/06 05:17:40;;;;;;;4.63;3.10;;;;;;;11.66;83.38;102541.84;4983038;28;20031;-77
2022/08/06 05:20:15;;;;;;;7.68;3.20;;;;;;;11.77;83.03;102544.19;4981434;28;20030;-75
2022/08/06 05:22:43;;;;;;;8.68;3.45;;;;;;;11.86;83.07;102543.94;4984732;28;20257;-77
2022/08/06 05:25:09;;;;;;;7.13;3.42;;;;;;;11.94;83.37;102549.94;4975207;28;20027;-77
2022/08/06 05:27:34;;;;;;;5.57;3.25;;;;;;;12.00;83.14;102535.53;4973641;28;20019;-76
2022/08/06 05:30:02;;;;;;;6.88;3.30;;;;;;;12.14;83.32;102552.00;4983833;28;20069;-77
2022/08/06 05:32:27;;;;;;;7.22;3.30;;;;;;;12.27;82.37;102544.50;4992914;28;20112;-76
2022/08/06 05:34:52;;;;;;;9.18;3.40;;;;;;;12.41;82.12;102550.28;4980818;28;20026;-77
2022/08/06 05:37:18;;;;;;;8.00;3.13;;;;;;;12.54;81.48;102557.91;4984958;28;20033;-78
2022/08/06 05:39:43;;;;;;;6.75;3.28;;;;;;;12.67;80.62;102551.25;4989833;28;20040;-77
2022/08/06 05:42:08;;;;;;;4.22;2.80;;;;;;;12.86;80.92;102560.41;4987949;28;20037;-78
2022/08/06 05:44:33;;;;;;;7.97;3.13;;;;;;;13.01;79.82;102551.00;4976459;28;20155;-77
2022/08/06 05:47:08;;;;;;;7.20;3.00;;;;;;;13.18;79.24;102561.13;4987683;28;20036;-77
2022/08/06 05:49:41;;;;;;;5.57;2.70;;;;;;;13.42;78.80;102565.66;4985317;28;20026;-78
2022/08/06 05:52:28;;;;;;;5.55;3.15;;;;;;;13.68;76.61;102566.53;4990437;28;20483;-76
2022/08/06 05:55:35;;;;;;;7.85;3.13;;;;;;;13.96;76.67;102561.00;4973013;28;20086;-75
2022/08/06 05:58:10;;;;;;;6.30;2.90;;;;;;;14.12;75.26;102561.28;4975254;28;20262;-76
2022/08/06 06:00:38;;;;;;;7.00;2.63;;;;;;;14.46;73.64;102571.56;4978938;28;20034;-75
2022/08/06 06:03:06;;;;;;;6.18;2.80;;;;;;;14.64;74.09;102564.66;4987034;28;20058;-76
2022/08/06 06:05:32;;;;;;;8.35;2.53;;;;;;;14.80;73.43;102567.56;4977198;28;20034;-76
2022/08/06 06:07:59;;;;;;;6.60;2.55;;;;;;;14.99;71.37;102565.84;4996731;28;20480;-76
2022/08/06 06:10:25;;;;;;;8.68;3.10;;;;;;;15.28;70.85;102559.25;4982485;28;20069;-76
2022/08/06 06:12:51;;;;;;;5.10;2.67;;;;;;;15.49;70.60;102567.31;4986513;28;20101;-77
2022/08/06 06:15:17;;;;;;;6.45;2.30;;;;;;;15.60;70.00;102568.56;4988937;28;20105;-77
2022/08/06 06:18:03;;;;;;;5.97;2.15;;;;;;;15.76;70.14;102565.22;4973487;28;20054;-77
2022/08/06 06:20:35;;;;;;;7.28;2.50;;;;;;;15.81;68.18;102566.78;4977411;28;20058;-77
2022/08/06 06:23:15;;;;;;;5.45;2.20;;;;;;;15.98;67.77;102559.75;4980102;28;20089;-76
2022/08/06 06:25:45;;;;;;;4.93;1.80;;;;;;;16.16;67.06;102558.88;4989211;28;20106;-77
2022/08/06 06:28:23;;;;;;;5.55;2.00;;;;;;;16.35;67.16;102566.97;4983123;28;20042;-76
2022/08/06 06:31:04;;;;;;;4.43;1.83;;;;;;;16.51;65.82;102572.44;4989895;28;20054;-76
2022/08/06 06:33:37;;;;;;;8.13;1.98;;;;;;;16.59;64.52;102564.88;4986284;28;20066;-77
2022/08/06 06:36:16;;;;;;;5.28;1.98;;;;;;;16.73;65.44;102575.00;4982625;28;20106;-77
2022/08/06 06:39:10;;;;;;;5.18;2.72;;;;;;;16.89;65.30;102573.31;4978440;28;20027;-77
2022/08/06 06:41:45;;;;;;;6.82;2.30;;;;;;;17.06;63.49;102585.91;4986889;28;20026;-76
2022/08/06 06:44:23;;;;;;;4.68;1.48;;;;;;;17.03;61.91;102580.69;4990525;28;20419;-76
2022/08/06 06:46:59;;;;;;;4.85;1.67;;;;;;;17.03;61.75;102578.84;4992210;28;20113;-77
2022/08/06 06:49:32;;;;;;;6.35;1.98;;;;;;;17.24;61.93;102584.97;4994353;28;20030;-77
2022/08/06 06:52:05;;;;;;;4.15;1.60;;;;;;;17.33;61.44;102578.22;5008166;28;20038;-76
2022/08/06 06:54:48;;;;;;;3.78;1.50;;;;;;;17.49;60.14;102586.38;5001471;28;20037;-77
2022/08/06 06:57:20;;;;;;;2.83;1.47;;;;;;;17.63;58.86;102579.31;5006139;28;20026;-75
2022/08/06 06:59:51;;;;;;;4.95;1.40;;;;;;;17.78;59.20;102593.81;5000098;28;20332;-77
2022/08/06 07:02:21;;;;;;;3.58;1.10;;;;;;;17.87;58.49;102590.63;4990318;28;20030;-77
2022/08/06 07:04:48;;;;;;;4.70;1.42;;;;;;;17.99;57.18;102589.09;4987186;28;20030;-77
2022/08/06 07:07:16;;;;;;;4.28;1.05;;;;;;;18.22;57.39;102590.53;4987420;28;20598;-77
2022/08/06 07:09:43;;;;;;;3.83;1.00;;;;;;;18.40;56.10;102588.66;4976070;28;20547;-75
2022/08/06 07:12:12;;;;;;;3.83;1.02;;;;;;;18.60;55.96;102599.19;4979725;28;20152;-77
2022/08/06 07:14:40;;;;;;;4.00;0.98;;;;;;;18.70;53.76;102601.38;4972494;28;20018;-77
2022/08/06 07:17:06;;;;;;;2.60;0.80;;;;;;;18.94;55.20;102605.34;4983832;28;20026;-78
2022/08/06 07:19:33;;;;;;;3.80;0.80;;;;;;;18.96;53.33;102610.66;4972144;28;20056;-77
2022/08/06 07:21:59;;;;;;;2.45;0.73;;;;;;;18.92;52.91;102605.44;4984258;28;20802;-77
2022/08/06 07:24:27;;;;;;;4.05;1.55;;;;;;;19.08;53.67;102604.53;4985704;28;20109;-77
2022/08/06 07:26:55;;;;;;;3.60;0.95;;;;;;;19.34;52.92;102609.25;4981352;28;20084;-77
2022/08/06 07:29:21;;;;;;;2.95;0.80;;;;;;;19.54;51.53;102609.88;4978553;28;20511;-77
2022/08/06 07:31:48;;;;;;;3.05;1.10;;;;;;;19.73;52.01;102612.34;4982981;28;20035;-77
2022/08/06 07:34:15;;;;;;;3.80;1.10;;;;;;;20.02;51.19;102613.25;4984170;28;20027;-78
2022/08/06 07:36:46;;;;;;;3.67;0.90;;;;;;;20.42;51.92;102619.69;4985220;28;20141;-77
2022/08/06 07:39:17;;;;;;;3.50;0.90;;;;;;;20.69;49.41;102614.34;4980714;28;20388;-77
2022/08/06 07:41:45;;;;;;;4.13;0.77;;;;;;;20.91;48.50;102615.66;4976040;28;20118;-77
2022/08/06 07:44:12;;;;;;;3.58;1.10;;;;;;;20.98;47.70;102623.25;4981216;28;20045;-76
2022/08/06 07:46:41;;;;;;;4.40;1.25;;;;;;;21.10;47.19;102622.44;4984533;28;20090;-77
2022/08/06 07:49:08;;;;;;;5.32;1.17;;;;;;;21.49;46.88;102622.59;4977048;28;20026;-78
2022/08/06 07:51:39;;;;;;;3.35;1.45;;;;;;;22.05;46.66;102628.56;4985419;28;20034;-77
2022/08/06 07:54:09;;;;;;;3.45;1.10;;;;;;;22.27;44.43;102625.19;4989920;28;20388;-78
2022/08/06 07:56:37;;;;;;;3.67;1.13;;;;;;;22.70;45.31;102620.22;4982751;28;20015;-76
2022/08/06 07:59:03;;;;;;;4.35;1.88;;;;;;;23.03;43.68;102622.28;4981243;28;20120;-76
2022/08/06 08:01:29;;;;;;;3.20;1.08;;;;;;;23.21;42.02;102633.59;4986277;28;20038;-79
2022/08/06 08:06:40;;;;;;;5.85;1.20;;;;;;;24.00;41.22;102620.25;4984050;28;20097;-79
2022/08/06 08:09:09;;;;;;;5.05;1.20;;;;;;;24.46;38.93;102624.72;4984916;28;20032;-77
2022/08/06 08:11:40;;;;;;;3.38;1.13;;;;;;;24.90;37.81;102623.75;4986501;28;20546;-78
2022/08/06 08:14:08;;;;;;;4.30;1.00;;;;;;;25.21;37.63;102622.06;4981548;28;20088;-78
2022/08/06 08:16:34;;;;;;;3.75;1.15;;;;;;;25.21;36.20;102627.50;4986241;28;20018;-79
2022/08/06 08:18:59;;;;;;;3.30;1.17;;;;;;;25.18;37.05;102625.03;4982050;28;20062;-77
2022/08/06 08:21:26;;;;;;;5.72;1.02;;;;;;;24.40;36.87;102638.81;4986088;28;20027;-80
2022/08/06 08:23:51;;;;;;;9.27;1.38;;;;;;;22.87;39.58;102638.84;4990043;28;20501;-79
2022/08/06 08:26:17;;;;;;;4.88;1.15;;;;;;;21.74;41.85;102643.44;4983050;28;20030;-77
2022/08/06 08:28:43;;;;;;;3.47;0.82;;;;;;;20.88;43.32;102639.25;4986384;28;20417;-84
2022/08/06 08:31:08;;;;;;;4.55;1.00;;;;;;;20.58;44.21;102634.00;4979754;28;20113;-83
2022/08/06 08:33:34;;;;;;;5.32;1.00;;;;;;;21.53;43.26;102640.38;4990583;28;20030;-77
2022/08/06 08:36:00;;;;;;;2.42;1.00;;;;;;;22.65;40.61;102630.53;4975885;28;20431;-78
2022/08/06 08:38:31;;;;;;;6.00;1.40;;;;;;;23.11;39.83;102632.56;4976162;28;20046;-75
2022/08/06 08:41:00;;;;;;;2.58;0.90;;;;;;;23.40;40.15;102632.19;4984216;28;20291;-77
2022/08/06 08:43:33;;;;;;;4.32;2.05;;;;;;;24.55;38.73;102632.13;4989647;28;20104;-78
2022/08/06 08:45:59;;;;;;;;;;;;;;;25.87;39.62;102637.31;4981044;28;20033;-78
2022/08/06 08:48:28;;;;;;;5.22;1.40;;;;;;;27.01;34.14;102623.38;4983540;28;19925;-78
2022/08/06 08:50:56;;;;;;;4.95;1.30;;;;;;;27.29;33.42;102636.19;4984308;28;20031;-77
2022/08/06 08:53:32;;;;;;;3.70;1.30;;;;;;;27.90;34.66;102636.88;4990316;28;20032;-77
2022/08/06 08:55:59;;;;;;;3.50;1.98;;;;;;;28.63;30.27;102637.84;4981642;28;20468;-77
2022/08/06 08:58:25;;;;;;;3.42;1.30;;;;;;;29.47;29.53;102636.66;4980291;28;20034;-76
2022/08/06 09:00:50;;;;;;;6.10;0.98;;;;;;;30.31;29.28;102637.94;4989084;28;20153;-76
2022/08/06 09:03:16;;;;;;;3.83;1.00;;;;;;;30.65;26.36;102648.91;4980180;28;20142;-75
2022/08/06 09:05:41;;;;;;;3.50;0.68;;;;;;;30.21;26.69;102646.31;4984277;28;20027;-77
2022/08/06 09:08:09;;;;;;;1.98;0.90;;;;;;;29.41;27.75;102648.28;4981404;28;20035;-77
2022/08/06 09:10:35;;;;;;;3.03;0.95;;;;;;;29.53;27.52;102652.50;4986882;28;20037;-77
2022/08/06 09:13:00;;;;;;;2.20;0.70;;;;;;;29.85;27.35;102648.28;4980989;28;20480;-76
2022/08/06 09:15:26;;;;;;;2.83;0.80;;;;;;;30.53;26.99;102653.84;4986301;28;20030;-77
2022/08/06 09:17:51;;;;;;;2.47;0.60;;;;;;;30.86;26.23;102651.22;4975988;28;20100;-77
2022/08/06 09:20:17;;;;;;;2.90;0.75;;;;;;;30.98;25.07;102647.97;4981796;28;20526;-76
2022/08/06 09:22:50;;;;;;;1.63;0.50;;;;;;;31.20;23.35;102643.72;4986716;28;20030;-76
2022/08/06 09:25:37;;;;;;;1.50;0.52;;;;;;;31.37;24.40;102641.84;4981699;28;20071;-77
2022/08/06 09:28:03;;;;;;;5.30;1.55;;;;;;;31.63;23.41;102649.91;4993406;28;20065;-75
2022/08/06 09:30:30;;;;;;;1.27;0.60;;;;;;;31.78;21.82;102650.09;4983425;28;20038;-78
2022/08/06 09:32:56;;;;;;;0.85;0.50;;;;;;;32.11;22.81;102645.38;4970283;28;20030;-77
2022/08/06 09:35:26;;;;;;;1.77;0.70;;;;;;;32.57;22.87;102650.25;4971756;28;20114;-77
2022/08/06 09:38:04;;;;;;;3.92;1.20;;;;;;;32.33;23.70;102649.25;4972856;28;20026;-77
2022/08/06 09:40:29;;;;;;;2.45;0.77;;;;;;;32.37;23.52;102660.78;4984641;28;20085;-77
2022/08/06 09:42:55;;;;;;;3.45;0.85;;;;;;;32.57;22.46;102650.25;4984579;28;20026;-77
2022/08/06 09:45:23;;;;;;;1.42;0.63;;;;;;;31.20;23.36;102653.84;4976365;28;20035;-78
2022/08/06 09:47:59;;;;;;;2.13;0.50;;;;;;;30.84;22.87;102656.88;4974477;28;20022;-77
2022/08/06 09:50:38;;;;;;;1.77;0.60;;;;;;;31.53;23.49;102654.75;4981198;28;20038;-77
2022/08/06 09:53:04;;;;;;;1.00;0.50;;;;;;;31.88;21.26;102649.91;4990003;28;20105;-77
2022/08/06 09:55:30;;;;;;;2.83;0.70;;;;;;;31.98;21.71;102656.09;4984284;28;20149;-76
2022/08/06 09:57:56;;;;;;;3.60;1.30;;;;;;;32.03;22.64;102652.81;4980905;28;20030;-75
2022/08/06 10:00:26;;;;;;;3.38;0.90;;;;;;;32.31;22.69;102654.06;4982971;28;20747;-76
2022/08/06 10:03:01;;;;;;;2.22;0.57;;;;;;;32.91;22.07;102656.22;4981603;28;20443;-77
2022/08/06 10:05:27;;;;;;;5.82;0.98;;;;;;;33.37;22.54;102655.41;4983871;28;20082;-77
2022/08/06 10:08:04;;;;;;;4.57;0.85;;;;;;;34.30;21.59;102655.00;4983339;28;20034;-78
2022/08/06 10:10:41;;;;;;;17.67;2.42;;;;;;;35.11;21.07;102654.97;4985403;28;20057;-79
2022/08/06 10:13:26;;;;;;;4.88;1.48;;;;;;;35.95;21.20;102656.97;4976647;28;20034;-77
2022/08/06 10:15:55;;;;;;;19.23;2.45;;;;;;;36.46;19.01;102652.00;4971012;28;20023;-77
2022/08/06 10:18:39;;;;;;;11.77;1.33;;;;;;;36.40;18.60;102650.00;4977088;28;20116;-77
2022/08/06 10:21:07;;;;;;;2.30;0.73;;;;;;;35.12;16.96;102659.47;4984759;28;20057;-77
2022/08/06 10:23:36;;;;;;;16.08;12.02;;;;;;;34.16;19.64;102658.66;4983659;28;20041;-77
2022/08/06 10:26:04;;;;;;;4.47;2.17;;;;;;;33.66;20.12;102647.25;4980940;28;20476;-78
2022/08/06 10:28:32;;;;;;;2.65;0.80;;;;;;;33.78;19.81;102632.94;4994894;28;20023;-76
2022/08/06 10:31:00;;;;;;;4.68;1.10;;;;;;;33.58;19.45;102644.56;5003728;28;20045;-75
2022/08/06 10:33:30;;;;;;;1.80;0.70;;;;;;;33.23;20.08;102632.22;4993338;28;20026;-76
2022/08/06 10:36:02;;;;;;;2.47;0.82;;;;;;;32.85;19.60;102634.88;4990293;28;20396;-75
2022/08/06 10:38:29;;;;;;;2.27;0.80;;;;;;;32.83;20.55;102633.38;4994694;28;20034;-77
2022/08/06 10:40:56;;;;;;;2.90;0.95;;;;;;;32.36;21.32;102631.53;4997992;28;20045;-77
2022/08/06 10:43:24;;;;;;;4.57;0.82;;;;;;;33.57;21.06;102631.81;4993753;28;20089;-77
2022/08/06 10:45:49;;;;;;;1.38;0.50;;;;;;;33.68;19.63;102623.03;5001595;28;20019;-77
2022/08/06 10:48:16;;;;;;;1.27;0.50;;;;;;;33.50;19.64;102625.31;4980794;28;20026;-77
2022/08/06 10:50:43;;;;;;;1.40;0.50;;;;;;;31.58;21.03;102622.06;4984331;28;20389;-77
2022/08/06 10:53:10;;;;;;;0.70;0.50;;;;;;;31.90;20.76;102623.09;4975665;28;20023;-78
2022/08/06 10:55:35;;;;;;;1.65;0.60;;;;;;;33.33;19.98;102623.72;4980661;28;20565;-77
2022/08/06 10:58:02;;;;;;;1.67;0.60;;;;;;;33.81;18.16;102616.88;4981809;28;20031;-74
2022/08/06 11:00:30;;;;;;;1.98;0.50;;;;;;;33.95;18.89;102618.78;4975718;28;20121;-78
2022/08/06 11:03:07;;;;;;;2.67;0.60;;;;;;;34.04;19.14;102622.34;4994827;28;20479;-77
2022/08/06 11:05:37;;;;;;;1.23;0.60;;;;;;;34.31;18.03;102629.09;4971288;28;20034;-76
2022/08/06 11:08:45;;;;;;;2.17;0.70;;;;;;;35.58;18.94;102626.69;4971590;28;20042;-76
2022/08/06 11:11:19;;;;;;;4.00;0.63;;;;;;;35.10;17.13;102620.03;4948890;28;20516;-77
2022/08/06 11:13:57;;;;;;;1.92;0.77;;;;;;;34.41;18.03;102623.28;4937045;28;20042;-76
2022/08/06 11:16:24;;;;;;;2.03;0.73;;;;;;;35.44;17.80;102620.13;4951488;28;20134;-76
2022/08/06 11:19:06;;;;;;;1.48;0.90;;;;;;;35.51;17.95;102614.69;4944383;28;20445;-77
2022/08/06 11:21:35;;;;;;;3.28;0.80;;;;;;;35.60;17.58;102623.69;4937339;28;20582;-77
2022/08/06 11:24:01;;;;;;;5.05;2.60;;;;;;;36.24;17.18;102620.69;4951493;28;20036;-76
2022/08/06 11:26:52;;;;;;;3.42;0.50;;;;;;;37.12;17.55;102610.59;4941721;28;20063;-77
2022/08/06 11:29:17;;;;;;;2.17;0.70;;;;;;;37.70;16.01;102611.84;4936070;29;20048;-75
2022/08/06 11:31:47;;;;;;;1.95;0.68;;;;;;;38.03;16.03;102618.22;4965105;28;20031;-77
2022/08/06 11:34:14;;;;;;;1.08;0.50;;;;;;;38.29;14.70;102611.72;4941853;28;20043;-77
2022/08/06 11:37:06;;;;;;;1.60;0.63;;;;;;;38.68;16.00;102608.97;4953252;28;20224;-77
2022/08/06 11:40:07;;;;;;;1.75;0.80;;;;;;;37.90;15.99;102612.69;4942481;28;20086;-77